Adin, CA (96006)

9:41 AM PDT on July 23, 2016 (GMT -0700)
KCAMCART2 | | Change Station

Elev 4265 ft 41.23 °N, 121.22 °W | Updated 8 seconds ago

Clear
Clear
75.2 °F
Feels Like 77 °F
N
1.8
Wind Variable Wind from SE
Gusts 2.0 mph

Today
High -- | Low -- °F
--% Chance of Precip.
Yesterday
High -- | Low -- °F
Precip. -- in
Pressure 30.13 in
Visibility 10.0 miles
Clouds Clear
Heat Index 77 °F
Dew Point 38 °F
Humidity 27%
Rainfall 0.00 in
Snow Depth Not available.
5:51 AM 8:28 PM
Waning Gibbous, 84% visible
METAR KAAT 231555Z AUTO 00000KT 10SM CLR 17/04 A3025 RMK AO2 SLP203 T01720044
Pressure 30.13 in
Visibility 10.0 miles
Clouds Clear
Heat Index 77 °F
Dew Point 38 °F
Humidity 27%
Rainfall 0.00 in
Snow Depth Not available.
5:51 AM 8:28 PM
Waning Gibbous, 84% visible
METAR KAAT 231555Z AUTO 00000KT 10SM CLR 17/04 A3025 RMK AO2 SLP203 T01720044

10-Day Weather Forecast

Almanac

Astronomy

Jul. 23, 2016 Rise Set
Actual Time
Civil Twilight
Nautical Twilight
Astronomical Twilight
Moon
Length of Visible Light
Length of Day
Tomorrow will be .
, % of the Moon is Illuminated

Today's Extremes

State Highs State Lows

Community

WunderPhotos

Upload Photos

1,926,861 photos uploaded!

WunderBlog® & News

Nearby

Air Quality

  Air Quality AQ Index Pollutant
Not available.

Snow Depth

Station Depth Elevation

Earthquake Activity

City Distance Mag. Time & Date
Minimum magnitude displayed is 2.5.

Coastal Water Temperatures

Place Temperature

Stations

Nearby Weather Stations

Station Location Temp. Windchill Dew Point Humidity Wind Precip. Elev Updated Type
                   

Watches & Warnings

There are currently no watches in effect.